Time;durP1;ratioP1;P1;durP2;ratioP2;P2;SDS_P1;SDS_P2;PMS_P1;PMS_P2;Temp;Humidity;BMP_temperature;BMP_pressure;BME280_temperature;BME280_humidity;BME280_pressure;Samples;Min_cycle;Max_cycle;Signal;HPM_P1;HPM_P2
2024/02/11 00:01:18;;;;;;;29.30;18.30;;;;;;;;;;4983880;28;20455;-82
2024/02/11 00:03:45;;;;;;;27.57;18.90;;;;;;;;;;4967349;28;20220;-83
2024/02/11 00:06:13;;;;;;;32.33;19.30;;;;;;;;;;4992101;28;20225;-82
2024/02/11 00:08:40;;;;;;;27.93;18.70;;;;;;;;;;4965333;28;20227;-80
2024/02/11 00:11:06;;;;;;;28.70;18.80;;;;;;;;;;4977973;28;20219;-81
2024/02/11 00:13:32;;;;;;;29.13;18.87;;;;;;;;;;4965044;28;20216;-82
2024/02/11 00:16:09;;;;;;;29.97;19.37;;;;;;;;;;4996404;28;20305;-81
2024/02/11 00:18:41;;;;;;;30.87;19.80;;;;;;;;;;4998284;28;20225;-83
2024/02/11 00:21:07;;;;;;;31.80;19.87;;;;;;;;;;4998338;28;20473;-80
2024/02/11 00:23:36;;;;;;;31.97;20.23;;;;;;;;;;4993412;28;20224;-83
2024/02/11 00:26:06;;;;;;;29.07;18.93;;;;;;;;;;4987195;28;20235;-81
2024/02/11 00:28:33;;;;;;;33.97;20.47;;;;;;;;;;4986578;28;20303;-82
2024/02/11 00:31:02;;;;;;;34.10;19.80;;;;;;;;;;4997420;28;20255;-83
2024/02/11 00:33:28;;;;;;;29.67;19.20;;;;;;;;;;4966046;28;20280;-84
2024/02/11 00:35:53;;;;;;;28.07;18.33;;;;;;;;;;4996725;28;20365;-83
2024/02/11 00:38:19;;;;;;;31.53;19.07;;;;;;;;;;4976200;28;20229;-83
2024/02/11 00:40:45;;;;;;;30.33;19.20;;;;;;;;;;4980514;28;20275;-84
2024/02/11 00:43:12;;;;;;;35.37;19.10;;;;;;;;;;4977943;28;20217;-84
2024/02/11 00:45:38;;;;;;;31.27;19.97;;;;;;;;;;4965523;28;20255;-81
2024/02/11 00:48:04;;;;;;;33.60;19.13;;;;;;;;;;4974749;28;20220;-82
2024/02/11 00:50:32;;;;;;;33.20;19.47;;;;;;;;;;4977446;28;20251;-82
2024/02/11 00:53:05;;;;;;;29.57;18.90;;;;;;;;;;4980748;28;20216;-81
2024/02/11 00:55:36;;;;;;;33.67;18.73;;;;;;;;;;4993116;28;20310;-83
2024/02/11 00:58:05;;;;;;;22.60;16.53;;;;;;;;;;4990278;28;20243;-83
2024/02/11 01:00:31;;;;;;;29.30;17.67;;;;;;;;;;4984514;28;20220;-82
2024/02/11 01:02:56;;;;;;;28.73;18.37;;;;;;;;;;5002570;28;20697;-82
2024/02/11 01:05:22;;;;;;;31.70;18.47;;;;;;;;;;4975884;28;20219;-82
2024/02/11 01:07:48;;;;;;;27.27;18.70;;;;;;;;;;5000872;28;20703;-84
2024/02/11 01:10:16;;;;;;;27.87;17.80;;;;;;;;;;4977444;28;20208;-83
2024/02/11 01:12:49;;;;;;;25.47;16.33;;;;;;;;;;4958622;28;20279;-81
2024/02/11 01:15:16;;;;;;;25.77;17.73;;;;;;;;;;5009951;28;20216;-82
2024/02/11 01:17:43;;;;;;;25.27;17.13;;;;;;;;;;4980092;28;20238;-82
2024/02/11 01:20:16;;;;;;;25.30;16.30;;;;;;;;;;4962277;28;20265;-82
2024/02/11 01:22:47;;;;;;;24.67;16.67;;;;;;;;;;4982864;28;20217;-82
2024/02/11 01:25:19;;;;;;;25.53;17.20;;;;;;;;;;4986690;28;20223;-83
2024/02/11 01:27:48;;;;;;;26.67;17.60;;;;;;;;;;4998638;28;20599;-82
2024/02/11 01:30:14;;;;;;;28.87;18.30;;;;;;;;;;4966944;28;20351;-80
2024/02/11 01:32:42;;;;;;;27.73;18.40;;;;;;;;;;4970863;28;20208;-83
2024/02/11 01:35:09;;;;;;;23.80;17.63;;;;;;;;;;4976502;28;20218;-82
2024/02/11 01:37:40;;;;;;;30.07;17.80;;;;;;;;;;4966143;28;20235;-82
2024/02/11 01:40:17;;;;;;;30.40;18.70;;;;;;;;;;5002627;28;20220;-84
2024/02/11 01:42:45;;;;;;;29.27;18.87;;;;;;;;;;4978125;28;20256;-82
2024/02/11 01:45:12;;;;;;;31.93;19.20;;;;;;;;;;5000874;28;20216;-82
2024/02/11 01:47:37;;;;;;;28.10;19.23;;;;;;;;;;4996477;28;20231;-82
2024/02/11 01:50:08;;;;;;;32.70;18.77;;;;;;;;;;4983141;28;20308;-84
2024/02/11 01:52:37;;;;;;;27.87;19.13;;;;;;;;;;4961797;28;20237;-83
2024/02/11 01:55:04;;;;;;;29.50;19.97;;;;;;;;;;4973497;28;20745;-82
2024/02/11 01:57:29;;;;;;;33.47;19.40;;;;;;;;;;4986268;28;20312;-84
2024/02/11 01:59:55;;;;;;;30.37;19.97;;;;;;;;;;4963523;28;20224;-82
2024/02/11 02:02:20;;;;;;;30.90;19.80;;;;;;;;;;4975051;28;20224;-83
2024/02/11 02:04:48;;;;;;;36.33;18.43;;;;;;;;;;4958074;28;20219;-82
2024/02/11 02:07:14;;;;;;;30.17;19.70;;;;;;;;;;4974342;28;20220;-82
2024/02/11 02:09:39;;;;;;;30.77;18.70;;;;;;;;;;4973812;28;20304;-82
2024/02/11 02:12:06;;;;;;;31.90;19.37;;;;;;;;;;4993916;28;20697;-84
2024/02/11 02:14:32;;;;;;;30.43;19.57;;;;;;;;;;5001681;28;20223;-81
2024/02/11 02:16:58;;;;;;;30.93;19.87;;;;;;;;;;4979399;28;20236;-80
2024/02/11 02:19:27;;;;;;;30.37;19.03;;;;;;;;;;4984362;28;20228;-82
2024/02/11 02:21:54;;;;;;;33.23;19.40;;;;;;;;;;4967044;28;20279;-83
2024/02/11 02:24:22;;;;;;;34.43;20.67;;;;;;;;;;4983525;28;20217;-81
2024/02/11 02:26:50;;;;;;;36.57;21.17;;;;;;;;;;4984707;28;20228;-82
2024/02/11 02:29:18;;;;;;;32.40;19.97;;;;;;;;;;5018050;28;20216;-83
2024/02/11 02:31:44;;;;;;;40.53;20.80;;;;;;;;;;4987749;28;20262;-81
2024/02/11 02:34:12;;;;;;;33.47;19.47;;;;;;;;;;4966788;28;20212;-82
2024/02/11 02:36:38;;;;;;;31.90;19.87;;;;;;;;;;4985313;28;20953;-82
2024/02/11 02:39:08;;;;;;;41.07;20.97;;;;;;;;;;4983269;28;20212;-81
2024/02/11 02:41:33;;;;;;;33.03;20.50;;;;;;;;;;5003670;28;20223;-81
2024/02/11 02:44:03;;;;;;;32.80;19.80;;;;;;;;;;4982525;28;20227;-81
2024/02/11 02:46:30;;;;;;;30.70;19.90;;;;;;;;;;4982344;28;20664;-82
2024/02/11 02:48:56;;;;;;;33.83;19.80;;;;;;;;;;4997531;28;20236;-82
2024/02/11 02:51:22;;;;;;;38.37;21.07;;;;;;;;;;4980373;28;20605;-82
2024/02/11 02:53:49;;;;;;;32.80;19.83;;;;;;;;;;4982686;28;21295;-82
2024/02/11 02:56:17;;;;;;;33.23;20.70;;;;;;;;;;4992858;28;20228;-83
2024/02/11 02:58:47;;;;;;;34.13;20.53;;;;;;;;;;4985789;28;20212;-82
2024/02/11 03:01:24;;;;;;;30.80;20.17;;;;;;;;;;5027887;28;20701;-81
2024/02/11 03:03:52;;;;;;;37.43;20.27;;;;;;;;;;4965068;28;20263;-81
2024/02/11 03:06:18;;;;;;;41.07;22.10;;;;;;;;;;4980479;28;20595;-80
2024/02/11 03:08:47;;;;;;;33.33;19.97;;;;;;;;;;4992573;28;21055;-80
2024/02/11 03:11:13;;;;;;;35.73;19.60;;;;;;;;;;4974833;28;20238;-81
2024/02/11 03:13:38;;;;;;;36.87;20.00;;;;;;;;;;4988345;28;20263;-81
2024/02/11 03:16:04;;;;;;;36.63;20.50;;;;;;;;;;4968790;28;20236;-82
2024/02/11 03:18:30;;;;;;;35.50;20.20;;;;;;;;;;4961068;28;20289;-82
2024/02/11 03:20:55;;;;;;;35.50;20.53;;;;;;;;;;4979401;28;20224;-79
2024/02/11 03:23:21;;;;;;;36.60;19.70;;;;;;;;;;4962749;28;21150;-83
2024/02/11 03:25:46;;;;;;;38.20;20.57;;;;;;;;;;4977222;28;20232;-82
2024/02/11 03:28:13;;;;;;;34.27;20.20;;;;;;;;;;5010062;28;20223;-82
2024/02/11 03:30:38;;;;;;;33.73;19.50;;;;;;;;;;4997445;28;20232;-82
2024/02/11 03:33:04;;;;;;;40.17;20.53;;;;;;;;;;4983862;28;20318;-83
2024/02/11 03:35:29;;;;;;;36.10;20.23;;;;;;;;;;4980969;28;20306;-82
2024/02/11 03:37:55;;;;;;;39.90;20.50;;;;;;;;;;4986069;28;20232;-81
2024/02/11 03:40:21;;;;;;;34.43;20.20;;;;;;;;;;4993787;28;20498;-82
2024/02/11 03:42:50;;;;;;;35.77;19.33;;;;;;;;;;4974032;28;20288;-82
2024/02/11 03:45:18;;;;;;;36.33;20.07;;;;;;;;;;5008511;28;20258;-80
2024/02/11 03:47:44;;;;;;;34.77;19.07;;;;;;;;;;4958108;28;20255;-81
2024/02/11 03:50:10;;;;;;;48.20;19.93;;;;;;;;;;4981168;28;20224;-83
2024/02/11 03:52:38;;;;;;;34.37;21.00;;;;;;;;;;4976757;28;20222;-82
2024/02/11 03:55:10;;;;;;;36.23;19.80;;;;;;;;;;4989565;28;20309;-81
2024/02/11 03:57:38;;;;;;;35.60;20.20;;;;;;;;;;4997240;28;20235;-80
2024/02/11 04:03:49;;;;;;;34.80;20.43;;;;;;;;;;5022014;28;20247;-80
2024/02/11 04:06:20;;;;;;;34.70;20.20;;;;;;;;;;4976898;28;20220;-81
2024/02/11 04:08:46;;;;;;;41.17;20.87;;;;;;;;;;4957598;28;20273;-81
2024/02/11 04:11:12;;;;;;;37.23;21.23;;;;;;;;;;4965456;28;20232;-84
2024/02/11 04:13:37;;;;;;;40.83;20.80;;;;;;;;;;4979690;28;20762;-81
2024/02/11 04:16:11;;;;;;;39.30;21.47;;;;;;;;;;5000247;28;20238;-82
2024/02/11 04:18:40;;;;;;;34.13;19.77;;;;;;;;;;4971230;28;20224;-80
2024/02/11 04:21:10;;;;;;;36.13;20.17;;;;;;;;;;5002624;28;20225;-81
2024/02/11 04:23:38;;;;;;;39.17;20.87;;;;;;;;;;4992046;28;20248;-81
2024/02/11 04:26:08;;;;;;;35.00;19.43;;;;;;;;;;5000346;28;20226;-82
2024/02/11 04:28:37;;;;;;;36.37;20.30;;;;;;;;;;4964177;28;20220;-83
2024/02/11 04:31:09;;;;;;;36.10;21.33;;;;;;;;;;4973384;28;20227;-82
2024/02/11 04:33:39;;;;;;;37.57;20.60;;;;;;;;;;4971900;28;20227;-84
2024/02/11 04:36:11;;;;;;;36.03;20.27;;;;;;;;;;4993234;28;20251;-81
2024/02/11 04:38:37;;;;;;;39.10;22.47;;;;;;;;;;4982057;28;20228;-81
2024/02/11 04:41:05;;;;;;;41.70;21.53;;;;;;;;;;4957022;28;20224;-83
2024/02/11 04:43:34;;;;;;;40.80;21.93;;;;;;;;;;4987909;28;20227;-83
2024/02/11 04:46:02;;;;;;;37.70;21.47;;;;;;;;;;4971867;28;20220;-81
2024/02/11 04:48:31;;;;;;;38.07;20.70;;;;;;;;;;4977540;28;20225;-84
2024/02/11 04:50:59;;;;;;;38.80;20.00;;;;;;;;;;4963914;28;20282;-82
2024/02/11 04:53:30;;;;;;;38.33;21.47;;;;;;;;;;4997215;28;20228;-81
2024/02/11 04:55:57;;;;;;;35.90;21.30;;;;;;;;;;4976519;28;20954;-81
2024/02/11 04:58:26;;;;;;;38.93;21.07;;;;;;;;;;4990916;28;20224;-82
2024/02/11 05:00:52;;;;;;;37.00;21.33;;;;;;;;;;4988574;28;20223;-81
2024/02/11 05:03:17;;;;;;;42.47;22.10;;;;;;;;;;4977974;28;20588;-80
2024/02/11 05:05:43;;;;;;;39.67;22.10;;;;;;;;;;4981060;28;20285;-80
2024/02/11 05:08:09;;;;;;;37.90;21.10;;;;;;;;;;4962054;28;20261;-80
2024/02/11 05:10:43;;;;;;;34.87;20.27;;;;;;;;;;4970348;28;20236;-81
2024/02/11 05:13:15;;;;;;;39.60;21.50;;;;;;;;;;4991385;28;20958;-80
2024/02/11 05:15:44;;;;;;;42.30;21.10;;;;;;;;;;4974919;28;20240;-80
2024/02/11 05:18:14;;;;;;;39.37;20.83;;;;;;;;;;4981234;28;20979;-80
2024/02/11 05:20:41;;;;;;;40.30;20.63;;;;;;;;;;4979795;28;20231;-82
2024/02/11 05:23:09;;;;;;;33.40;20.47;;;;;;;;;;4960922;28;20705;-81
2024/02/11 05:25:34;;;;;;;41.03;22.20;;;;;;;;;;4960203;28;20224;-84
2024/02/11 05:28:02;;;;;;;42.90;21.60;;;;;;;;;;4960205;28;20225;-81
2024/02/11 05:30:37;;;;;;;37.27;21.30;;;;;;;;;;4984869;28;20224;-81
2024/02/11 05:33:06;;;;;;;38.03;21.63;;;;;;;;;;4976069;28;20271;-81
2024/02/11 05:35:34;;;;;;;35.17;20.33;;;;;;;;;;4989000;28;20217;-82
2024/02/11 05:38:03;;;;;;;38.20;21.57;;;;;;;;;;4972957;28;20241;-82
2024/02/11 05:40:30;;;;;;;40.43;21.67;;;;;;;;;;4979103;28;20254;-82
2024/02/11 05:43:01;;;;;;;43.93;22.00;;;;;;;;;;4978396;28;20228;-82
2024/02/11 05:45:27;;;;;;;41.60;22.67;;;;;;;;;;4973974;28;20231;-83
2024/02/11 05:47:53;;;;;;;43.30;21.90;;;;;;;;;;4956560;28;20220;-82
2024/02/11 05:50:19;;;;;;;46.20;22.67;;;;;;;;;;4977465;28;20224;-82
2024/02/11 05:52:45;;;;;;;43.30;23.30;;;;;;;;;;4978319;28;20423;-82
2024/02/11 05:55:15;;;;;;;43.83;22.73;;;;;;;;;;4972097;28;20292;-81
2024/02/11 05:57:41;;;;;;;36.93;21.53;;;;;;;;;;4992467;28;20228;-82
2024/02/11 06:00:14;;;;;;;48.33;22.50;;;;;;;;;;4982189;28;20286;-81
2024/02/11 06:02:43;;;;;;;42.33;22.30;;;;;;;;;;4976773;28;20221;-81
2024/02/11 06:05:12;;;;;;;52.27;22.93;;;;;;;;;;4982545;28;20228;-80
2024/02/11 06:07:41;;;;;;;54.43;23.10;;;;;;;;;;4994473;28;20220;-80
2024/02/11 06:10:12;;;;;;;46.03;22.07;;;;;;;;;;4994891;28;20259;-81
2024/02/11 06:12:47;;;;;;;45.77;22.23;;;;;;;;;;4969214;28;20846;-81
2024/02/11 06:15:20;;;;;;;45.17;22.17;;;;;;;;;;5011128;28;20231;-80
2024/02/11 06:17:45;;;;;;;45.40;22.53;;;;;;;;;;4984996;28;20294;-80
2024/02/11 06:20:18;;;;;;;44.73;22.70;;;;;;;;;;4997297;28;20232;-81
2024/02/11 06:22:50;;;;;;;50.50;22.57;;;;;;;;;;4997064;28;20232;-79
2024/02/11 06:25:16;;;;;;;45.30;22.60;;;;;;;;;;4985664;28;20590;-81
2024/02/11 06:27:42;;;;;;;43.47;23.27;;;;;;;;;;4985960;28;20213;-80
2024/02/11 06:30:14;;;;;;;40.77;22.07;;;;;;;;;;4960079;28;20244;-81
2024/02/11 06:32:47;;;;;;;39.53;22.10;;;;;;;;;;4973283;28;20239;-81
2024/02/11 06:35:15;;;;;;;46.07;23.13;;;;;;;;;;4952692;28;20678;-80
2024/02/11 06:37:47;;;;;;;50.67;22.87;;;;;;;;;;4963720;28;20293;-81
2024/02/11 06:40:27;;;;;;;44.87;21.77;;;;;;;;;;4969505;28;21028;-82
2024/02/11 06:42:54;;;;;;;44.13;22.80;;;;;;;;;;4962468;28;20322;-78
2024/02/11 06:45:19;;;;;;;48.03;24.20;;;;;;;;;;4979521;28;20224;-81
2024/02/11 06:47:45;;;;;;;48.63;22.10;;;;;;;;;;4973586;28;20252;-80
2024/02/11 06:50:18;;;;;;;53.00;23.10;;;;;;;;;;4974284;28;20227;-81
2024/02/11 06:52:44;;;;;;;44.30;22.50;;;;;;;;;;4988039;28;20220;-81
2024/02/11 06:55:15;;;;;;;50.17;22.77;;;;;;;;;;4987003;28;20278;-81
2024/02/11 06:57:40;;;;;;;50.00;21.87;;;;;;;;;;5004329;28;20236;-82
2024/02/11 07:00:09;;;;;;;50.90;22.60;;;;;;;;;;4971355;28;20227;-82
2024/02/11 07:02:36;;;;;;;49.77;24.40;;;;;;;;;;4971395;28;20235;-81
2024/02/11 07:05:02;;;;;;;46.50;23.03;;;;;;;;;;5012088;28;20220;-81
2024/02/11 07:07:28;;;;;;;54.27;23.97;;;;;;;;;;4998705;28;21133;-81
2024/02/11 07:09:54;;;;;;;52.67;24.70;;;;;;;;;;4990441;28;20253;-81
2024/02/11 07:12:22;;;;;;;45.97;23.27;;;;;;;;;;4981337;28;21003;-81
2024/02/11 07:14:48;;;;;;;51.70;24.10;;;;;;;;;;4973198;28;20216;-81
2024/02/11 07:17:14;;;;;;;46.00;23.87;;;;;;;;;;4992514;28;20220;-81
2024/02/11 07:19:42;;;;;;;45.17;23.93;;;;;;;;;;5009943;28;20311;-81
2024/02/11 07:22:08;;;;;;;52.57;25.43;;;;;;;;;;4974763;28;20235;-81
2024/02/11 07:24:34;;;;;;;61.47;25.23;;;;;;;;;;4973609;28;20224;-81
2024/02/11 07:27:02;;;;;;;46.10;22.87;;;;;;;;;;4991037;28;20229;-80
2024/02/11 07:29:30;;;;;;;47.77;24.37;;;;;;;;;;4982190;28;20897;-80
2024/02/11 07:31:58;;;;;;;53.47;24.47;;;;;;;;;;5002030;28;20227;-81
2024/02/11 07:34:24;;;;;;;57.00;25.00;;;;;;;;;;4973818;28;20232;-82
2024/02/11 07:36:49;;;;;;;49.90;24.47;;;;;;;;;;4962045;28;20228;-82
2024/02/11 07:39:15;;;;;;;51.77;24.67;;;;;;;;;;4976281;28;20693;-82
2024/02/11 07:41:44;;;;;;;53.47;24.00;;;;;;;;;;5006147;28;20212;-81
2024/02/11 07:44:15;;;;;;;51.70;24.90;;;;;;;;;;4978917;28;20220;-82
2024/02/11 07:46:42;;;;;;;52.63;25.20;;;;;;;;;;4978657;28;20262;-81
2024/02/11 07:49:07;;;;;;;53.37;24.43;;;;;;;;;;4989323;28;20221;-81
2024/02/11 07:51:37;;;;;;;62.67;26.00;;;;;;;;;;4981211;28;20953;-81
2024/02/11 07:54:05;;;;;;;57.30;25.13;;;;;;;;;;4975727;28;20307;-82
2024/02/11 07:56:37;;;;;;;54.83;24.97;;;;;;;;;;4977188;28;20286;-81
2024/02/11 07:59:02;;;;;;;63.20;26.37;;;;;;;;;;4967490;28;20219;-80
2024/02/11 08:01:28;;;;;;;56.77;25.73;;;;;;;;;;4980689;28;20311;-81
2024/02/11 08:03:54;;;;;;;56.43;24.63;;;;;;;;;;4958558;28;20227;-81
2024/02/11 08:06:20;;;;;;;57.30;26.10;;;;;;;;;;5000434;28;20237;-82
2024/02/11 08:08:46;;;;;;;54.37;26.40;;;;;;;;;;4955231;28;20229;-82
2024/02/11 08:11:11;;;;;;;55.23;25.07;;;;;;;;;;4970236;28;20278;-84
2024/02/11 08:13:39;;;;;;;51.33;25.13;;;;;;;;;;5020770;28;20850;-83
2024/02/11 08:16:07;;;;;;;56.20;24.73;;;;;;;;;;4986554;28;20310;-80
2024/02/11 08:18:32;;;;;;;54.50;24.53;;;;;;;;;;4992966;28;20239;-81
2024/02/11 08:20:58;;;;;;;50.07;25.33;;;;;;;;;;4981008;28;20576;-83
2024/02/11 08:23:24;;;;;;;54.93;25.37;;;;;;;;;;4976931;28;20220;-80
2024/02/11 08:25:51;;;;;;;54.50;24.33;;;;;;;;;;4973247;28;20263;-80
2024/02/11 08:28:19;;;;;;;53.10;25.23;;;;;;;;;;5005326;28;20339;-80
2024/02/11 08:30:44;;;;;;;55.10;26.30;;;;;;;;;;4972749;28;20236;-83
2024/02/11 08:33:12;;;;;;;47.53;24.67;;;;;;;;;;4989169;28;20627;-80
2024/02/11 08:35:37;;;;;;;55.30;24.27;;;;;;;;;;4993426;28;20287;-81
2024/02/11 08:38:03;;;;;;;51.80;25.00;;;;;;;;;;5004732;28;20236;-82
2024/02/11 08:40:32;;;;;;;50.93;24.13;;;;;;;;;;4986121;28;20338;-80
2024/02/11 08:42:58;;;;;;;45.90;24.70;;;;;;;;;;4977464;28;20227;-81
2024/02/11 08:45:26;;;;;;;46.83;24.40;;;;;;;;;;4966669;28;20219;-83
2024/02/11 08:47:51;;;;;;;48.17;23.87;;;;;;;;;;4989027;28;20231;-82
2024/02/11 08:50:17;;;;;;;49.70;23.30;;;;;;;;;;4978228;28;20699;-83
2024/02/11 08:52:43;;;;;;;47.03;22.80;;;;;;;;;;4962726;28;20631;-81
2024/02/11 08:55:11;;;;;;;46.73;25.47;;;;;;;;;;4976549;28;20227;-83
2024/02/11 08:57:37;;;;;;;47.80;24.43;;;;;;;;;;4978295;28;20661;-81
2024/02/11 09:00:07;;;;;;;54.10;24.83;;;;;;;;;;4960118;28;20232;-83
2024/02/11 09:02:33;;;;;;;49.00;23.83;;;;;;;;;;4979320;28;20221;-80
2024/02/11 09:04:59;;;;;;;49.97;25.00;;;;;;;;;;4971493;28;20880;-82
2024/02/11 09:07:25;;;;;;;46.40;23.43;;;;;;;;;;4973615;28;20725;-82
2024/02/11 09:09:51;;;;;;;47.27;24.20;;;;;;;;;;4978267;28;20258;-82
2024/02/11 09:12:16;;;;;;;48.43;23.97;;;;;;;;;;5001808;28;20246;-83
2024/02/11 09:14:43;;;;;;;42.67;23.43;;;;;;;;;;4962836;28;20673;-82
2024/02/11 09:17:08;;;;;;;48.37;24.60;;;;;;;;;;4975608;28;20244;-81
2024/02/11 09:19:36;;;;;;;47.17;24.63;;;;;;;;;;4951792;28;20747;-83
2024/02/11 09:22:05;;;;;;;46.97;24.13;;;;;;;;;;4994050;28;20311;-82
2024/02/11 09:24:32;;;;;;;45.20;24.80;;;;;;;;;;4996878;28;20693;-83
2024/02/11 09:26:58;;;;;;;44.13;24.20;;;;;;;;;;4969644;28;20217;-83
2024/02/11 09:29:26;;;;;;;51.53;24.87;;;;;;;;;;5008941;28;20215;-80
2024/02/11 09:31:51;;;;;;;44.13;23.50;;;;;;;;;;4993383;28;20225;-84
2024/02/11 09:34:21;;;;;;;44.00;23.63;;;;;;;;;;4981658;28;20727;-81
2024/02/11 09:36:49;;;;;;;47.20;24.33;;;;;;;;;;4993179;28;20232;-84
2024/02/11 09:39:16;;;;;;;46.03;23.37;;;;;;;;;;4979465;28;20444;-80
2024/02/11 09:41:42;;;;;;;41.80;23.47;;;;;;;;;;4975540;28;20282;-82
2024/02/11 09:44:07;;;;;;;45.23;23.03;;;;;;;;;;4985439;28;20232;-82
2024/02/11 09:46:34;;;;;;;41.03;22.37;;;;;;;;;;4969319;28;20362;-81
2024/02/11 09:49:01;;;;;;;41.97;22.63;;;;;;;;;;4980784;28;20310;-82
2024/02/11 09:51:29;;;;;;;46.77;23.57;;;;;;;;;;4991897;28;20228;-83
2024/02/11 09:53:59;;;;;;;47.33;23.07;;;;;;;;;;4993138;28;20352;-82
2024/02/11 09:56:26;;;;;;;46.17;22.60;;;;;;;;;;4979348;28;20330;-82
2024/02/11 09:58:57;;;;;;;40.47;22.13;;;;;;;;;;4970421;28;20300;-83
2024/02/11 10:02:07;;;;;;;45.07;23.90;;;;;;;;;;4964566;28;20637;-82
2024/02/11 10:04:41;;;;;;;41.77;22.13;;;;;;;;;;5022898;28;20954;-80
2024/02/11 10:07:07;;;;;;;45.50;22.70;;;;;;;;;;4983087;28;20612;-81
2024/02/11 10:09:33;;;;;;;41.80;24.10;;;;;;;;;;4963324;28;20216;-82
2024/02/11 10:11:59;;;;;;;40.13;21.90;;;;;;;;;;4994485;28;20220;-81
2024/02/11 10:14:29;;;;;;;39.63;22.07;;;;;;;;;;4993388;28;20221;-82
2024/02/11 10:16:56;;;;;;;38.30;22.37;;;;;;;;;;4981023;28;20233;-83
2024/02/11 10:19:24;;;;;;;44.43;22.43;;;;;;;;;;4967921;28;20833;-81
2024/02/11 10:21:51;;;;;;;36.40;21.83;;;;;;;;;;4980845;28;20610;-80
2024/02/11 10:24:19;;;;;;;40.87;22.33;;;;;;;;;;4984777;28;20288;-81
2024/02/11 10:26:48;;;;;;;38.80;21.43;;;;;;;;;;4991792;28;20230;-82
2024/02/11 10:29:13;;;;;;;41.20;22.67;;;;;;;;;;4971917;28;20702;-82
2024/02/11 10:31:41;;;;;;;41.60;21.40;;;;;;;;;;4975652;28;20217;-80
2024/02/11 10:34:09;;;;;;;36.87;21.63;;;;;;;;;;4989574;28;20224;-82
2024/02/11 10:36:37;;;;;;;41.70;21.37;;;;;;;;;;4957795;28;20226;-81
2024/02/11 10:39:05;;;;;;;39.43;22.17;;;;;;;;;;4976547;28;20232;-80
2024/02/11 10:41:37;;;;;;;39.40;20.27;;;;;;;;;;4987045;28;20224;-82
2024/02/11 10:44:04;;;;;;;39.90;20.83;;;;;;;;;;4996945;28;20224;-83
2024/02/11 10:46:30;;;;;;;34.53;21.13;;;;;;;;;;4975717;28;20263;-82
2024/02/11 10:48:58;;;;;;;38.90;21.80;;;;;;;;;;5010121;28;20651;-82
2024/02/11 10:51:24;;;;;;;38.87;21.80;;;;;;;;;;4977553;28;20240;-82
2024/02/11 10:53:56;;;;;;;35.17;21.07;;;;;;;;;;5009664;28;20316;-81
2024/02/11 10:56:24;;;;;;;37.77;21.77;;;;;;;;;;4986972;28;20231;-82
2024/02/11 10:59:09;;;;;;;39.20;21.40;;;;;;;;;;4983958;28;20224;-80
2024/02/11 11:01:38;;;;;;;37.80;21.27;;;;;;;;;;4999357;28;20375;-82
2024/02/11 11:04:06;;;;;;;38.50;22.10;;;;;;;;;;4999197;28;20274;-80
2024/02/11 11:06:35;;;;;;;35.77;21.23;;;;;;;;;;4982550;28;20219;-80
2024/02/11 11:09:00;;;;;;;40.27;22.33;;;;;;;;;;4978809;28;20224;-81
2024/02/11 11:11:28;;;;;;;38.60;21.63;;;;;;;;;;4965758;28;20785;-82
2024/02/11 11:13:56;;;;;;;37.80;21.93;;;;;;;;;;4997330;28;20221;-82
2024/02/11 11:16:30;;;;;;;37.33;21.13;;;;;;;;;;4990515;28;20235;-81
2024/02/11 11:19:04;;;;;;;39.83;22.40;;;;;;;;;;4977277;28;20228;-82
2024/02/11 11:21:32;;;;;;;37.43;21.07;;;;;;;;;;4965902;28;20254;-81
2024/02/11 11:24:00;;;;;;;41.93;22.80;;;;;;;;;;4974445;28;20225;-82
2024/02/11 11:26:29;;;;;;;37.63;21.10;;;;;;;;;;4979635;28;20244;-81
2024/02/11 11:29:03;;;;;;;42.27;21.80;;;;;;;;;;5011065;28;20224;-82
2024/02/11 11:31:34;;;;;;;41.93;22.17;;;;;;;;;;4976378;28;20230;-81
2024/02/11 11:34:01;;;;;;;37.93;20.90;;;;;;;;;;4965095;28;20367;-83
2024/02/11 11:36:29;;;;;;;42.00;21.40;;;;;;;;;;4964915;28;20231;-80
2024/02/11 11:39:11;;;;;;;37.47;22.03;;;;;;;;;;4977773;28;20235;-80
2024/02/11 11:41:37;;;;;;;34.47;21.37;;;;;;;;;;4984484;28;20216;-81
2024/02/11 11:44:02;;;;;;;38.30;21.23;;;;;;;;;;4981993;28;20232;-82
2024/02/11 11:46:31;;;;;;;33.93;20.90;;;;;;;;;;5007045;28;20248;-83
2024/02/11 11:48:57;;;;;;;41.13;21.47;;;;;;;;;;4976199;28;20220;-83
2024/02/11 11:51:23;;;;;;;42.43;22.27;;;;;;;;;;4993619;28;20669;-81
2024/02/11 11:53:51;;;;;;;37.57;20.83;;;;;;;;;;4998313;28;20220;-81
2024/02/11 11:56:20;;;;;;;36.87;21.47;;;;;;;;;;4990427;28;20704;-82
2024/02/11 11:58:50;;;;;;;35.97;21.20;;;;;;;;;;4975626;28;20232;-82
2024/02/11 12:01:19;;;;;;;37.97;22.23;;;;;;;;;;4978861;28;20318;-78
2024/02/11 12:03:44;;;;;;;40.23;22.60;;;;;;;;;;4999137;28;20230;-80
2024/02/11 12:06:13;;;;;;;37.30;22.07;;;;;;;;;;4977053;28;20931;-79
2024/02/11 12:08:38;;;;;;;37.37;22.23;;;;;;;;;;4976914;28;20323;-80
2024/02/11 12:11:06;;;;;;;36.27;21.77;;;;;;;;;;4978825;28;20234;-80
2024/02/11 12:13:36;;;;;;;39.87;21.73;;;;;;;;;;4978552;28;20793;-81
2024/02/11 12:16:13;;;;;;;35.07;20.70;;;;;;;;;;4993465;28;20225;-79
2024/02/11 12:18:41;;;;;;;36.23;21.50;;;;;;;;;;4983238;28;20223;-79
2024/02/11 12:21:08;;;;;;;34.57;20.23;;;;;;;;;;4986293;28;20744;-79
2024/02/11 12:23:36;;;;;;;40.60;22.03;;;;;;;;;;4997737;28;20290;-81
2024/02/11 12:26:06;;;;;;;40.30;20.60;;;;;;;;;;4978623;28;20275;-81
2024/02/11 12:28:37;;;;;;;40.10;21.60;;;;;;;;;;4980950;28;20217;-80
2024/02/11 12:31:09;;;;;;;37.80;21.50;;;;;;;;;;4968860;28;20225;-79
2024/02/11 12:33:37;;;;;;;37.63;20.80;;;;;;;;;;4996291;28;20319;-79
2024/02/11 12:36:29;;;;;;;36.77;21.30;;;;;;;;;;4961418;28;20296;-81
2024/02/11 12:38:55;;;;;;;32.87;20.50;;;;;;;;;;5002398;28;20229;-81
2024/02/11 12:41:25;;;;;;;34.07;19.80;;;;;;;;;;4978643;28;20298;-82
2024/02/11 12:43:56;;;;;;;34.37;19.93;;;;;;;;;;4972805;28;20223;-81
2024/02/11 12:46:22;;;;;;;36.03;20.67;;;;;;;;;;4981643;28;20212;-80
2024/02/11 12:48:47;;;;;;;38.97;21.70;;;;;;;;;;5004483;28;20286;-81
2024/02/11 12:51:17;;;;;;;35.00;20.83;;;;;;;;;;5011888;28;20231;-80
2024/02/11 12:53:45;;;;;;;35.10;20.73;;;;;;;;;;4995229;28;20246;-82
2024/02/11 12:56:13;;;;;;;35.93;20.37;;;;;;;;;;4981144;28;20512;-81
2024/02/11 12:58:43;;;;;;;34.33;20.37;;;;;;;;;;4973236;28;20236;-82
2024/02/11 13:01:11;;;;;;;34.57;19.20;;;;;;;;;;4989938;28;20311;-81
2024/02/11 13:03:39;;;;;;;38.97;20.57;;;;;;;;;;4964119;28;20223;-82
2024/02/11 13:06:07;;;;;;;36.53;19.63;;;;;;;;;;4991486;28;20224;-83
2024/02/11 13:08:33;;;;;;;35.93;19.27;;;;;;;;;;4964032;28;20258;-83
2024/02/11 13:10:59;;;;;;;36.20;19.33;;;;;;;;;;4998446;28;20252;-81
2024/02/11 13:13:25;;;;;;;34.33;19.00;;;;;;;;;;4981508;28;20996;-80
2024/02/11 13:15:53;;;;;;;35.67;19.07;;;;;;;;;;4987908;28;20275;-78
2024/02/11 13:18:21;;;;;;;32.50;18.63;;;;;;;;;;4959257;28;20229;-82
2024/02/11 13:20:47;;;;;;;33.23;19.80;;;;;;;;;;4981968;28;20971;-82
2024/02/11 13:23:14;;;;;;;30.33;18.47;;;;;;;;;;4960686;28;20246;-81
2024/02/11 13:25:40;;;;;;;35.70;19.20;;;;;;;;;;4963630;28;20557;-82
2024/02/11 13:28:10;;;;;;;34.47;19.27;;;;;;;;;;4983055;28;20239;-81
2024/02/11 13:30:37;;;;;;;30.73;18.60;;;;;;;;;;4972245;28;20299;-83
2024/02/11 13:33:07;;;;;;;31.03;18.60;;;;;;;;;;4974657;28;20363;-82
2024/02/11 13:35:37;;;;;;;32.27;18.30;;;;;;;;;;4982742;28;20281;-81
2024/02/11 13:38:03;;;;;;;29.30;18.83;;;;;;;;;;4977872;28;20725;-82
2024/02/11 13:40:28;;;;;;;32.20;17.70;;;;;;;;;;4979553;28;20234;-81
2024/02/11 13:42:56;;;;;;;32.90;19.03;;;;;;;;;;5002764;28;20226;-79
2024/02/11 13:45:22;;;;;;;34.43;19.70;;;;;;;;;;4993037;28;20220;-80
2024/02/11 13:47:50;;;;;;;31.37;18.73;;;;;;;;;;4964807;28;20235;-79
2024/02/11 13:50:18;;;;;;;34.93;19.73;;;;;;;;;;4964094;28;20299;-81
2024/02/11 13:52:43;;;;;;;37.67;19.17;;;;;;;;;;4990576;28;20226;-83
2024/02/11 13:55:11;;;;;;;33.10;19.07;;;;;;;;;;4967963;28;20656;-81
2024/02/11 13:57:37;;;;;;;34.40;20.13;;;;;;;;;;4998835;28;20332;-80
2024/02/11 14:00:08;;;;;;;34.43;19.13;;;;;;;;;;4984124;28;20252;-78
2024/02/11 14:02:42;;;;;;;36.13;20.20;;;;;;;;;;4985831;28;20247;-79
2024/02/11 14:05:09;;;;;;;37.50;19.17;;;;;;;;;;4977053;28;20224;-81
2024/02/11 14:07:34;;;;;;;38.33;23.07;;;;;;;;;;5007609;28;20295;-79
2024/02/11 14:10:01;;;;;;;37.37;21.33;;;;;;;;;;4972488;28;20236;-79
2024/02/11 14:12:29;;;;;;;34.47;19.33;;;;;;;;;;4988626;28;20220;-81
2024/02/11 14:14:55;;;;;;;34.07;18.93;;;;;;;;;;5007078;28;20235;-78
2024/02/11 14:17:25;;;;;;;32.97;19.17;;;;;;;;;;5001653;28;20289;-79
2024/02/11 14:19:54;;;;;;;32.60;18.07;;;;;;;;;;5007563;28;20224;-79
2024/02/11 14:22:20;;;;;;;32.00;19.50;;;;;;;;;;4986208;28;20670;-79
2024/02/11 14:24:45;;;;;;;32.90;19.40;;;;;;;;;;4990751;28;20247;-78